Time;durP1;ratioP1;P1;durP2;ratioP2;P2;SDS_P1;SDS_P2;PMS_P1;PMS_P2;Temp;Humidity;BMP_temperature;BMP_pressure;BME280_temperature;BME280_humidity;BME280_pressure;Samples;Min_cycle;Max_cycle;Signal;HPM_P1;HPM_P2
2022/12/14 00:01:51;;;;;;;12.52;8.38;;;;;;;-0.67;100.00;100394.31;5131883;29;20035;-70
2022/12/14 00:04:22;;;;;;;;;;;;;;;-0.27;100.00;100380.41;5133672;29;20059;-70
2022/12/14 00:06:53;;;;;;;11.93;7.47;;;;;;;-0.67;100.00;100384.84;5131303;29;19969;-70
2022/12/14 00:09:25;;;;;;;12.57;8.13;;;;;;;-0.78;100.00;100364.75;5132091;29;20287;-70
2022/12/14 00:11:56;;;;;;;11.65;7.40;;;;;;;-0.74;100.00;100371.41;5111520;29;20401;-70
2022/12/14 00:14:27;;;;;;;11.25;8.18;;;;;;;-0.74;100.00;100358.56;5132486;29;20039;-70
2022/12/14 00:16:58;;;;;;;12.68;8.75;;;;;;;-0.74;100.00;100357.72;5129497;29;20023;-70
2022/12/14 00:19:30;;;;;;;12.93;7.82;;;;;;;-0.73;100.00;100356.81;5133218;29;20115;-70
2022/12/14 00:22:01;;;;;;;14.77;8.73;;;;;;;-0.75;100.00;100369.75;5131558;29;20408;-70
2022/12/14 00:24:32;;;;;;;12.48;8.23;;;;;;;-0.75;100.00;100359.47;5132998;29;20508;-70
2022/12/14 00:27:03;;;;;;;12.27;8.18;;;;;;;-0.78;100.00;100367.31;5128365;29;20572;-70
2022/12/14 00:29:35;;;;;;;10.95;7.70;;;;;;;-0.74;100.00;100371.41;5135820;29;20058;-70
2022/12/14 00:32:06;;;;;;;12.07;7.45;;;;;;;-0.75;100.00;100367.19;5135088;29;20024;-70
2022/12/14 00:34:37;;;;;;;14.68;8.70;;;;;;;-0.84;100.00;100351.31;5136842;29;20035;-70
2022/12/14 00:37:09;;;;;;;11.27;7.50;;;;;;;-0.76;100.00;100359.53;5135130;29;20050;-70
2022/12/14 00:39:41;;;;;;;11.98;7.80;;;;;;;-0.81;100.00;100353.78;5136705;29;20025;-71
2022/12/14 00:42:12;;;;;;;11.38;7.45;;;;;;;-0.78;100.00;100349.31;5134534;29;20038;-70
2022/12/14 00:44:43;;;;;;;13.20;8.07;;;;;;;-0.79;100.00;100345.09;5131587;29;20119;-70
2022/12/14 00:47:15;;;;;;;11.75;7.05;;;;;;;-0.87;100.00;100326.59;5136608;29;20030;-70
2022/12/14 00:49:46;;;;;;;14.10;7.85;;;;;;;-0.87;100.00;100326.59;5136375;29;21034;-70
2022/12/14 00:52:17;;;;;;;11.18;7.68;;;;;;;-0.89;100.00;100325.84;5134525;29;20631;-70
2022/12/14 00:54:48;;;;;;;11.32;7.70;;;;;;;-0.88;100.00;100330.06;5135234;29;20481;-70
2022/12/14 00:57:20;;;;;;;13.10;7.93;;;;;;;-0.95;100.00;100323.53;5119070;29;20034;-70
2022/12/14 00:59:51;;;;;;;13.77;7.72;;;;;;;-0.98;100.00;100311.66;5132634;29;20118;-70
2022/12/14 01:02:23;;;;;;;11.82;7.20;;;;;;;-0.98;100.00;100318.56;5133500;29;20024;-70
2022/12/14 01:04:54;;;;;;;12.70;7.93;;;;;;;-0.99;100.00;100330.53;5136163;29;20027;-70
2022/12/14 01:07:26;;;;;;;12.25;7.90;;;;;;;-0.99;100.00;100327.97;5135794;29;20362;-70
2022/12/14 01:09:57;;;;;;;11.27;7.15;;;;;;;-0.99;100.00;100320.25;5132766;29;20444;-70
2022/12/14 01:12:28;;;;;;;12.30;7.70;;;;;;;-1.04;100.00;100309.34;5112555;29;20067;-70
2022/12/14 01:15:00;;;;;;;11.20;7.50;;;;;;;-1.05;100.00;100306.88;5115033;29;20019;-70
2022/12/14 01:17:31;;;;;;;9.60;6.93;;;;;;;-1.11;100.00;100297.69;5134126;29;20054;-69
2022/12/14 01:20:03;;;;;;;11.07;7.35;;;;;;;-1.01;100.00;100304.09;5133446;29;20294;-69
2022/12/14 01:22:34;;;;;;;11.90;7.57;;;;;;;-1.05;100.00;100302.56;5134018;29;20036;-69
2022/12/14 01:25:06;;;;;;;11.57;7.68;;;;;;;-1.01;100.00;100304.09;5134599;29;20075;-69
2022/12/14 01:27:37;;;;;;;13.88;7.28;;;;;;;-1.01;100.00;100304.09;5135462;29;20035;-69
2022/12/14 01:30:08;;;;;;;12.57;7.00;;;;;;;-1.06;100.00;100303.47;5133658;29;20027;-69
2022/12/14 01:32:40;;;;;;;11.85;7.97;;;;;;;-1.04;100.00;100298.25;5131716;29;20342;-69
2022/12/14 01:35:11;;;;;;;11.32;7.70;;;;;;;-1.03;100.00;100294.75;5117798;29;20028;-69
2022/12/14 01:37:42;;;;;;;11.98;7.68;;;;;;;-1.06;100.00;100297.47;5133623;29;20086;-69
2022/12/14 01:40:14;;;;;;;10.80;7.30;;;;;;;-1.03;100.00;100305.06;5133704;29;20038;-69
2022/12/14 01:42:45;;;;;;;10.30;6.85;;;;;;;-1.09;100.00;100289.94;5131429;29;20020;-71
2022/12/14 01:45:20;;;;;;;11.02;6.88;;;;;;;-1.03;100.00;100300.75;5134585;29;20024;-71
2022/12/14 01:48:00;;;;;;;12.38;7.03;;;;;;;-1.04;100.00;100305.97;5134773;29;20027;-71
2022/12/14 01:50:38;;;;;;;10.48;7.53;;;;;;;-1.06;100.00;100305.19;5133063;29;20032;-71
2022/12/14 01:53:22;;;;;;;10.52;7.07;;;;;;;-1.05;100.00;100307.69;5133621;29;20119;-71
2022/12/14 01:55:55;;;;;;;10.07;6.75;;;;;;;-1.18;100.00;100304.00;5132313;29;20426;-71
2022/12/14 01:58:27;;;;;;;10.85;6.80;;;;;;;-1.20;100.00;100295.53;5135810;29;20031;-71
2022/12/14 02:01:01;;;;;;;11.65;7.28;;;;;;;-1.11;100.00;100299.44;5116785;29;20041;-71
2022/12/14 02:03:34;;;;;;;;;;;;;;;-0.70;100.00;100289.81;5133766;29;20451;-69
2022/12/14 02:06:11;;;;;;;10.15;6.35;;;;;;;-1.06;100.00;100287.19;5130360;29;19990;-71
2022/12/14 02:08:45;;;;;;;12.90;7.28;;;;;;;-1.12;100.00;100288.31;5132176;29;20039;-69
2022/12/14 02:11:28;;;;;;;11.48;7.20;;;;;;;-1.10;100.00;100286.53;5133380;29;20485;-71
2022/12/14 02:13:59;;;;;;;12.48;7.30;;;;;;;-1.18;100.00;100274.91;5134947;29;20110;-71
2022/12/14 02:16:31;;;;;;;13.30;7.30;;;;;;;-1.20;100.00;100280.13;5134073;29;20078;-71
2022/12/14 02:19:02;;;;;;;10.82;6.63;;;;;;;-1.18;100.00;100265.44;5135012;29;20105;-71
2022/12/14 02:21:39;;;;;;;11.57;7.22;;;;;;;-1.17;100.00;100271.44;5132732;29;20484;-71
2022/12/14 02:24:26;;;;;;;11.48;7.55;;;;;;;-1.17;100.00;100272.28;5131119;29;20489;-71
2022/12/14 02:27:22;;;;;;;9.38;6.35;;;;;;;-1.05;100.00;100268.31;5132976;29;20027;-71
2022/12/14 02:30:11;;;;;;;11.43;6.88;;;;;;;-1.08;100.00;100269.28;5134581;29;20028;-71
2022/12/14 02:32:55;;;;;;;10.73;7.43;;;;;;;-1.13;100.00;100267.84;5133236;29;20038;-72
2022/12/14 02:35:36;;;;;;;11.23;7.22;;;;;;;-1.05;100.00;100270.88;5124704;29;20032;-71
2022/12/14 02:38:10;;;;;;;11.70;7.20;;;;;;;-1.18;100.00;100259.47;5132949;29;20155;-71
2022/12/14 02:41:15;;;;;;;11.25;7.40;;;;;;;-0.98;100.00;100261.97;5133954;29;20134;-69
2022/12/14 02:44:02;;;;;;;8.68;5.95;;;;;;;-1.03;100.00;100257.03;5129807;29;20078;-71
2022/12/14 02:46:41;;;;;;;9.80;6.93;;;;;;;-1.13;100.00;100262.69;5134310;29;20024;-71
2022/12/14 02:49:51;;;;;;;10.93;6.95;;;;;;;-1.01;100.00;100255.25;5134589;29;20051;-71
2022/12/14 02:52:52;;;;;;;9.80;7.05;;;;;;;-1.01;100.00;100251.84;5130177;29;20027;-69
2022/12/14 02:55:29;;;;;;;10.27;6.38;;;;;;;-1.17;100.00;100259.44;5131419;29;20024;-70
2022/12/14 02:58:15;;;;;;;10.38;6.90;;;;;;;-1.10;100.00;100247.09;5133199;29;20032;-71
2022/12/14 03:00:47;;;;;;;10.38;6.88;;;;;;;-1.17;100.00;100261.16;5125593;29;20051;-71
2022/12/14 03:03:18;;;;;;;10.18;6.90;;;;;;;-1.19;100.00;100257.81;5124602;29;20036;-71
2022/12/14 03:06:01;;;;;;;10.55;7.10;;;;;;;-1.06;100.00;100266.63;5133537;29;20549;-68
2022/12/14 03:08:34;;;;;;;9.93;7.00;;;;;;;-1.14;100.00;100258.44;5131423;29;20035;-71
2022/12/14 03:11:07;;;;;;;9.05;6.38;;;;;;;-1.24;100.00;100256.28;5131803;29;20039;-71
2022/12/14 03:13:47;;;;;;;11.85;6.22;;;;;;;-1.16;100.00;100260.25;5114336;29;20393;-71
2022/12/14 03:16:23;;;;;;;11.65;7.13;;;;;;;-1.13;100.00;100254.97;5132669;29;20027;-71
2022/12/14 03:19:02;;;;;;;9.85;6.82;;;;;;;-1.10;100.00;100253.09;5133275;29;20033;-71
2022/12/14 03:21:38;;;;;;;11.25;6.55;;;;;;;-1.13;100.00;100244.69;5132532;29;20102;-71
2022/12/14 03:24:18;;;;;;;12.40;6.38;;;;;;;-1.08;100.00;100243.56;5133357;29;20106;-69
2022/12/14 03:26:59;;;;;;;11.13;7.35;;;;;;;-1.09;100.00;100241.91;5130600;29;20479;-69
2022/12/14 03:29:40;;;;;;;11.18;6.95;;;;;;;-1.11;100.00;100238.56;5130370;29;20106;-68
2022/12/14 03:32:17;;;;;;;10.32;6.85;;;;;;;-1.15;100.00;100225.94;5133120;29;20039;-69
2022/12/14 03:34:56;;;;;;;10.38;7.07;;;;;;;-1.17;100.00;100215.72;5131474;29;20079;-71
2022/12/14 03:37:40;;;;;;;11.45;7.70;;;;;;;-1.13;100.00;100208.72;5132239;29;20039;-71
2022/12/14 03:40:13;;;;;;;10.20;6.65;;;;;;;-1.26;100.00;100206.69;5133392;29;20065;-71
2022/12/14 03:42:58;;;;;;;10.88;7.45;;;;;;;-1.12;100.00;100211.19;5127267;29;20035;-69
2022/12/14 03:45:43;;;;;;;12.05;7.15;;;;;;;-1.14;100.00;100219.88;5128612;29;20032;-71
2022/12/14 03:48:30;;;;;;;11.13;7.03;;;;;;;-1.20;100.00;100220.19;5130944;29;20043;-71
2022/12/14 03:51:26;;;;;;;12.20;6.97;;;;;;;-1.16;100.00;100216.56;5130207;29;20063;-72
2022/12/14 03:54:03;;;;;;;9.80;6.40;;;;;;;-1.15;100.00;100216.47;5133339;29;20035;-69
2022/12/14 03:57:01;;;;;;;12.60;7.30;;;;;;;-0.99;100.00;100203.72;5132677;29;20072;-68
2022/12/14 03:59:46;;;;;;;10.52;6.63;;;;;;;-1.13;100.00;100211.28;5132783;29;20082;-68
2022/12/14 04:02:36;;;;;;;10.38;7.18;;;;;;;-1.00;100.00;100199.50;5130452;29;20089;-68
2022/12/14 04:05:14;;;;;;;11.32;7.32;;;;;;;-1.24;100.00;100192.03;5136616;29;20040;-71
2022/12/14 04:08:01;;;;;;;12.70;7.43;;;;;;;-1.24;100.00;100192.03;5119528;29;20039;-71
2022/12/14 04:19:49;;;;;;;11.35;7.15;;;;;;;-0.99;100.00;100178.03;5083429;29;20042;-68
2022/12/14 04:22:25;;;;;;;12.73;7.38;;;;;;;-1.17;100.00;100168.66;5134733;29;20068;-71
2022/12/14 04:28:02;;;;;;;11.35;7.15;;;;;;;-1.17;100.00;100169.47;5134959;29;20124;-69
2022/12/14 04:30:38;;;;;;;10.73;7.13;;;;;;;-1.17;100.00;100173.78;5135609;29;20465;-69
2022/12/14 04:36:03;;;;;;;12.23;7.25;;;;;;;-1.22;100.00;100161.94;5137013;29;20469;-69
2022/12/14 04:38:36;;;;;;;12.23;6.70;;;;;;;-1.20;100.00;100155.94;5118448;29;20055;-69
2022/12/14 04:41:13;;;;;;;11.93;7.05;;;;;;;-1.17;100.00;100159.19;5135935;29;20404;-69
2022/12/14 04:43:50;;;;;;;13.52;7.75;;;;;;;-1.18;100.00;100154.09;5131590;29;20035;-69
2022/12/14 04:46:28;;;;;;;10.52;6.97;;;;;;;-1.16;100.00;100160.03;5135795;29;20421;-69
2022/12/14 04:49:08;;;;;;;12.68;7.47;;;;;;;-1.19;100.00;100149.88;5136230;29;20103;-69
2022/12/14 04:51:57;;;;;;;11.88;7.82;;;;;;;-1.11;100.00;100153.75;5133327;29;20031;-69
2022/12/14 04:54:33;;;;;;;10.93;7.55;;;;;;;-1.22;100.00;100151.66;5134758;29;20035;-68
2022/12/14 04:57:16;;;;;;;12.63;7.35;;;;;;;-1.18;100.00;100143.81;5135872;29;20023;-69
2022/12/14 04:59:48;;;;;;;13.48;8.60;;;;;;;-1.24;100.00;100144.97;5135447;29;20031;-69
2022/12/14 05:02:37;;;;;;;12.57;7.82;;;;;;;-1.07;100.00;100144.97;5134118;29;20086;-69
2022/12/14 05:05:23;;;;;;;11.68;8.45;;;;;;;-1.15;100.00;100147.09;5135909;29;20032;-69
2022/12/14 05:08:06;;;;;;;13.45;7.28;;;;;;;-1.26;100.00;100145.00;5131112;29;20035;-69
2022/12/14 05:10:43;;;;;;;11.27;8.05;;;;;;;-1.18;100.00;100146.41;5134108;29;20160;-69
2022/12/14 05:13:24;;;;;;;12.55;7.88;;;;;;;-1.16;100.00;100147.16;5134794;29;20079;-69
2022/12/14 05:15:57;;;;;;;13.55;8.00;;;;;;;-1.22;100.00;100140.56;5135135;29;20131;-69
2022/12/14 05:18:28;;;;;;;11.68;7.75;;;;;;;-1.27;100.00;100133.06;5136407;29;20028;-69
2022/12/14 05:20:59;;;;;;;13.23;7.15;;;;;;;-1.30;100.00;100128.06;5133814;29;20034;-69
2022/12/14 05:23:31;;;;;;;10.60;7.18;;;;;;;-1.26;100.00;100132.16;5132476;29;20378;-68
2022/12/14 05:26:02;;;;;;;12.32;7.68;;;;;;;-1.26;100.00;100134.72;5135053;29;20400;-69
2022/12/14 05:28:33;;;;;;;10.82;7.18;;;;;;;-1.28;100.00;100128.03;5134095;29;20401;-69
2022/12/14 05:31:04;;;;;;;10.80;7.25;;;;;;;-1.26;100.00;100127.03;5135367;29;20072;-69
2022/12/14 05:33:36;;;;;;;11.75;7.60;;;;;;;-1.24;100.00;100114.94;5133857;29;20028;-69
2022/12/14 05:36:08;;;;;;;11.75;7.60;;;;;;;-1.26;100.00;100121.88;5136357;29;20034;-70
2022/12/14 05:38:40;;;;;;;11.40;7.55;;;;;;;-1.22;100.00;100120.84;5125689;29;20377;-69
2022/12/14 05:41:11;;;;;;;12.65;6.75;;;;;;;-1.23;100.00;100115.78;5133296;29;20437;-69
2022/12/14 05:43:42;;;;;;;11.00;7.20;;;;;;;-1.22;100.00;100123.41;5134775;29;20452;-69
2022/12/14 05:46:13;;;;;;;11.73;7.05;;;;;;;-1.27;100.00;100127.94;5116934;29;20031;-69
2022/12/14 05:48:45;;;;;;;12.75;7.88;;;;;;;-1.30;100.00;100111.84;5134384;29;20043;-70
2022/12/14 05:51:16;;;;;;;11.38;7.20;;;;;;;-1.27;100.00;100124.53;5135234;29;20031;-69
2022/12/14 05:53:47;;;;;;;11.73;7.28;;;;;;;-1.29;100.00;100114.34;5135307;29;20035;-69
2022/12/14 05:56:18;;;;;;;14.80;8.23;;;;;;;-1.30;100.00;100125.50;5131870;29;20023;-69
2022/12/14 05:58:50;;;;;;;12.25;7.70;;;;;;;-1.30;100.00;100125.50;5133383;29;20050;-69
2022/12/14 06:01:22;;;;;;;12.10;7.65;;;;;;;-1.30;100.00;100127.25;5133690;29;20048;-69
2022/12/14 06:03:53;;;;;;;13.00;7.97;;;;;;;-1.25;100.00;100121.00;5133294;29;20055;-69
2022/12/14 06:06:24;;;;;;;12.52;7.70;;;;;;;-1.29;100.00;100122.06;5117373;29;20019;-69
2022/12/14 06:08:56;;;;;;;11.63;7.40;;;;;;;-1.29;100.00;100114.34;5135276;29;20027;-69
2022/12/14 06:11:27;;;;;;;13.23;8.15;;;;;;;-1.28;100.00;100115.19;5134438;29;20031;-69
2022/12/14 06:13:58;;;;;;;13.60;8.18;;;;;;;-1.27;100.00;100117.66;5130585;29;20057;-70
2022/12/14 06:16:30;;;;;;;13.40;8.85;;;;;;;-1.31;100.00;100107.59;5134182;29;20211;-69
2022/12/14 06:19:03;;;;;;;15.10;7.63;;;;;;;-1.19;100.00;100104.44;5134390;29;20122;-69
2022/12/14 06:21:38;;;;;;;14.27;8.30;;;;;;;-1.24;100.00;100103.84;5131477;29;20028;-69
2022/12/14 06:24:12;;;;;;;11.45;7.88;;;;;;;-1.23;100.00;100113.22;5132177;29;20433;-69
2022/12/14 06:26:43;;;;;;;;;;;;;;;-0.76;100.00;100113.47;5133980;29;20198;-70
2022/12/14 06:29:16;;;;;;;11.27;7.30;;;;;;;-1.15;100.00;100107.69;5134451;29;19922;-68
2022/12/14 06:31:48;;;;;;;11.32;7.10;;;;;;;-1.24;100.00;100109.81;5132238;29;20042;-68
2022/12/14 06:34:20;;;;;;;12.88;8.15;;;;;;;-1.23;100.00;100108.91;5133815;29;20130;-68
2022/12/14 06:36:51;;;;;;;10.02;7.22;;;;;;;-1.26;100.00;100103.06;5133291;29;20048;-68
2022/12/14 06:39:22;;;;;;;10.93;7.40;;;;;;;-1.26;100.00;100103.91;5131459;29;20167;-68
2022/12/14 06:41:54;;;;;;;11.70;7.72;;;;;;;-1.29;100.00;100109.22;5131710;29;20046;-68
2022/12/14 06:44:25;;;;;;;10.35;7.68;;;;;;;-1.27;100.00;100114.25;5134600;29;20509;-70
2022/12/14 06:46:56;;;;;;;13.93;7.63;;;;;;;-1.30;100.00;100112.66;5132271;29;20058;-69
2022/12/14 06:49:28;;;;;;;12.20;8.23;;;;;;;-1.28;100.00;100126.28;5128587;29;20532;-68
2022/12/14 06:51:59;;;;;;;12.43;8.38;;;;;;;-1.29;100.00;100122.06;5129818;29;20039;-69
2022/12/14 06:54:31;;;;;;;11.25;7.28;;;;;;;-1.24;100.00;100116.69;5129216;29;20074;-69
2022/12/14 06:57:02;;;;;;;14.57;8.27;;;;;;;-1.29;100.00;100119.50;5130390;29;20030;-69
2022/12/14 06:59:33;;;;;;;12.43;8.05;;;;;;;-1.29;100.00;100129.75;5130920;29;20046;-69
2022/12/14 07:02:04;;;;;;;12.40;7.75;;;;;;;-1.33;100.00;100119.69;5129479;29;20024;-69
2022/12/14 07:04:36;;;;;;;9.85;7.00;;;;;;;-1.31;100.00;100113.56;5131413;29;20250;-69
2022/12/14 07:07:07;;;;;;;13.95;8.50;;;;;;;-1.34;100.00;100121.41;5130149;29;20020;-69
2022/12/14 07:09:38;;;;;;;10.95;7.55;;;;;;;-1.32;100.00;100124.75;5131497;29;20510;-69
2022/12/14 07:12:09;;;;;;;13.38;8.98;;;;;;;-1.32;100.00;100123.94;5126585;29;20031;-69
2022/12/14 07:14:41;;;;;;;13.13;7.88;;;;;;;-1.33;100.00;100127.38;5132178;29;20032;-69
2022/12/14 07:17:12;;;;;;;14.65;8.63;;;;;;;-1.33;100.00;100123.06;5121330;29;20019;-69
2022/12/14 07:19:43;;;;;;;14.20;7.57;;;;;;;-1.34;100.00;100128.31;5127782;29;20028;-69
2022/12/14 07:22:14;;;;;;;12.02;7.95;;;;;;;-1.36;100.00;100128.38;5131599;29;20031;-69
2022/12/14 07:24:46;;;;;;;13.38;8.40;;;;;;;-1.35;100.00;100134.34;5129998;29;21189;-69
2022/12/14 07:27:17;;;;;;;12.73;8.25;;;;;;;-1.40;100.00;100123.44;5127878;29;20442;-69
2022/12/14 07:29:49;;;;;;;11.32;7.63;;;;;;;-1.40;100.00;100124.31;5128108;29;20528;-69
2022/12/14 07:32:20;;;;;;;12.07;8.05;;;;;;;-1.43;100.00;100131.31;5126937;29;20031;-69
2022/12/14 07:34:51;;;;;;;14.20;8.35;;;;;;;-1.49;100.00;100137.56;5130706;29;20036;-69
2022/12/14 07:37:23;;;;;;;13.85;8.13;;;;;;;-1.46;100.00;100132.28;5126813;29;20070;-69
2022/12/14 07:39:54;;;;;;;13.15;8.05;;;;;;;-1.42;100.00;100140.69;5130106;29;20083;-69
2022/12/14 07:42:25;;;;;;;13.82;7.85;;;;;;;-1.49;100.00;100129.84;5127974;29;20489;-69
2022/12/14 07:44:57;;;;;;;14.60;8.18;;;;;;;-1.49;100.00;100127.28;5131205;29;20032;-69
2022/12/14 07:47:29;;;;;;;16.38;8.02;;;;;;;-1.58;100.00;100122.56;5130921;29;20027;-69
2022/12/14 07:50:00;;;;;;;12.27;8.00;;;;;;;-1.53;100.00;100136.88;5130960;29;20462;-69
2022/12/14 07:52:31;;;;;;;13.68;8.88;;;;;;;-1.57;100.00;100140.47;5124974;29;20030;-70
2022/12/14 07:55:03;;;;;;;16.88;9.43;;;;;;;-1.64;100.00;100127.97;5130031;29;20028;-69
2022/12/14 07:57:34;;;;;;;14.88;8.18;;;;;;;-1.60;100.00;100135.47;5132255;29;20067;-68
2022/12/14 08:00:06;;;;;;;12.63;8.25;;;;;;;-1.58;100.00;100127.72;5129761;29;20027;-69
2022/12/14 08:02:38;;;;;;;15.80;9.25;;;;;;;-1.61;100.00;100145.81;5128390;29;20047;-69
2022/12/14 08:05:10;;;;;;;14.48;8.93;;;;;;;-1.57;100.00;100137.91;5129686;29;20473;-70
2022/12/14 08:07:41;;;;;;;15.73;8.88;;;;;;;-1.67;100.00;100143.53;5129220;29;20122;-69
2022/12/14 08:10:12;;;;;;;14.82;8.43;;;;;;;-1.65;100.00;100145.13;5122500;29;20036;-70
2022/12/14 08:12:43;;;;;;;13.10;8.60;;;;;;;-1.73;100.00;100145.47;5125529;29;20043;-70
2022/12/14 08:15:15;;;;;;;14.60;9.38;;;;;;;-1.68;100.00;100147.84;5133453;29;20398;-70
2022/12/14 08:17:46;;;;;;;11.85;8.30;;;;;;;-1.63;100.00;100145.91;5129638;29;20748;-70
2022/12/14 08:20:17;;;;;;;14.55;8.27;;;;;;;-1.67;100.00;100139.22;5132600;29;20024;-70
2022/12/14 08:22:50;;;;;;;12.60;7.53;;;;;;;-1.65;100.00;100142.56;5129111;29;20461;-70
2022/12/14 08:25:21;;;;;;;12.93;7.95;;;;;;;-1.64;100.00;100159.63;5128193;29;20046;-70
2022/12/14 08:27:52;;;;;;;12.82;7.32;;;;;;;-1.78;100.00;100156.84;5129480;29;20513;-70
2022/12/14 08:30:24;;;;;;;14.88;8.50;;;;;;;-1.83;100.00;100157.06;5133065;29;20485;-68
2022/12/14 08:32:55;;;;;;;12.98;8.75;;;;;;;-1.85;100.00;100158.06;5129251;29;20043;-70
2022/12/14 08:35:26;;;;;;;13.82;9.10;;;;;;;-1.82;100.00;100156.19;5122741;29;20055;-70
2022/12/14 08:37:57;;;;;;;18.45;9.38;;;;;;;-1.82;100.00;100150.19;5130972;29;20048;-70
2022/12/14 08:40:29;;;;;;;12.27;8.00;;;;;;;-1.90;100.00;100163.38;5126578;29;20035;-71
2022/12/14 08:43:00;;;;;;;14.63;8.55;;;;;;;-1.96;100.00;100159.34;5129978;29;20098;-71
2022/12/14 08:45:32;;;;;;;16.67;8.73;;;;;;;-1.96;100.00;100158.53;5131981;29;20057;-70
2022/12/14 08:48:03;;;;;;;18.17;8.50;;;;;;;-1.97;100.00;100167.09;5132004;29;20115;-71
2022/12/14 08:50:34;;;;;;;14.15;8.75;;;;;;;-2.04;100.00;100160.59;5134449;29;20042;-70
2022/12/14 08:53:06;;;;;;;12.93;8.57;;;;;;;-2.06;100.00;100160.66;5135955;29;20477;-71
2022/12/14 08:55:37;;;;;;;16.75;8.93;;;;;;;-2.29;100.00;100110.31;5133062;29;20118;-70
2022/12/14 08:58:09;;;;;;;14.20;8.57;;;;;;;-1.98;100.00;100163.69;5128720;29;20028;-71
2022/12/14 09:00:40;;;;;;;13.73;8.60;;;;;;;-1.99;100.00;100153.50;5124200;29;20775;-71
2022/12/14 09:03:11;;;;;;;14.07;8.82;;;;;;;-2.03;100.00;100155.38;5132995;29;20478;-71
2022/12/14 09:05:43;;;;;;;17.15;9.05;;;;;;;-2.03;100.00;100157.94;5130939;29;20036;-71
2022/12/14 09:08:14;;;;;;;14.45;8.45;;;;;;;-2.03;100.00;100160.50;5131389;29;20032;-71
2022/12/14 09:10:49;;;;;;;13.45;9.00;;;;;;;-1.97;100.00;100159.41;5131889;29;20032;-70
2022/12/14 09:13:21;;;;;;;16.38;8.98;;;;;;;-2.00;100.00;100167.25;5131511;29;20110;-70
2022/12/14 09:16:20;;;;;;;17.58;9.25;;;;;;;-1.89;100.00;100172.75;5131017;29;20103;-71
2022/12/14 09:18:52;;;;;;;15.23;9.05;;;;;;;-1.92;100.00;100174.63;5123830;29;20569;-70
2022/12/14 09:21:23;;;;;;;14.82;8.82;;;;;;;-1.94;100.00;100179.81;5133258;29;20115;-70
2022/12/14 09:23:55;;;;;;;13.63;9.02;;;;;;;-1.89;100.00;100180.47;5130376;29;20039;-70
2022/12/14 09:26:26;;;;;;;15.75;9.05;;;;;;;-1.85;100.00;100176.84;5129259;29;20031;-70
2022/12/14 09:28:58;;;;;;;14.45;9.10;;;;;;;-1.86;100.00;100185.44;5125590;29;20544;-70
2022/12/14 09:31:29;;;;;;;17.05;8.68;;;;;;;-2.03;100.00;100157.13;5130881;29;20449;-70
2022/12/14 09:34:00;;;;;;;15.82;8.32;;;;;;;-1.85;100.00;100189.69;5130631;29;20052;-70
2022/12/14 09:36:32;;;;;;;15.18;8.43;;;;;;;-1.84;100.00;100188.78;5131936;29;20024;-70
2022/12/14 09:39:03;;;;;;;16.35;9.20;;;;;;;-1.83;100.00;100187.88;5130454;29;20052;-70
2022/12/14 09:41:35;;;;;;;17.58;8.70;;;;;;;-1.80;100.00;100187.75;5130397;29;20035;-70
2022/12/14 09:44:19;;;;;;;13.07;8.45;;;;;;;-1.63;100.00;100183.56;5129450;29;20276;-70
2022/12/14 09:47:12;;;;;;;12.77;8.48;;;;;;;-1.52;100.00;100176.22;5125894;29;20043;-70
2022/12/14 09:49:46;;;;;;;14.98;8.85;;;;;;;-1.65;100.00;100172.56;5125347;29;20557;-70
2022/12/14 09:52:27;;;;;;;15.10;8.77;;;;;;;-1.56;100.00;100172.97;5131583;29;20086;-70
2022/12/14 09:55:02;;;;;;;12.70;8.02;;;;;;;-1.58;100.00;100174.78;5121574;29;20421;-70
2022/12/14 09:57:38;;;;;;;11.50;7.85;;;;;;;-1.48;100.00;100183.75;5130424;29;20473;-71
2022/12/14 10:00:17;;;;;;;11.88;8.25;;;;;;;-1.42;100.00;100190.31;5129574;29;20032;-70
2022/12/14 10:03:13;;;;;;;13.95;7.85;;;;;;;-1.29;100.00;100183.72;5112814;29;20115;-70
2022/12/14 10:06:04;;;;;;;12.60;7.88;;;;;;;-1.24;100.00;100194.63;5130470;29;20027;-71
2022/12/14 10:09:07;;;;;;;11.52;8.02;;;;;;;-1.12;100.00;100189.81;5130136;29;20058;-70
2022/12/14 10:12:14;;;;;;;11.23;6.80;;;;;;;-1.06;100.00;100181.78;5129395;29;20476;-70
2022/12/14 10:14:57;;;;;;;12.40;6.82;;;;;;;-1.15;100.00;100170.22;5132182;29;20042;-70
2022/12/14 10:17:57;;;;;;;13.15;7.72;;;;;;;-0.92;100.00;100168.28;5127727;29;20084;-71
2022/12/14 10:21:00;;;;;;;15.98;7.28;;;;;;;-0.93;100.00;100162.31;5123301;29;20095;-70
2022/12/14 10:23:34;;;;;;;13.95;7.60;;;;;;;-0.93;100.00;100164.06;5132055;29;20040;-71
2022/12/14 10:26:14;;;;;;;11.85;7.78;;;;;;;-0.90;100.00;100169.06;5128652;29;20118;-71
2022/12/14 10:29:01;;;;;;;12.68;7.40;;;;;;;-0.82;100.00;100179.81;5131147;29;20086;-70
2022/12/14 10:31:57;;;;;;;11.95;7.32;;;;;;;-0.64;100.00;100183.22;5130604;29;20027;-70
2022/12/14 10:34:30;;;;;;;14.32;8.52;;;;;;;-0.65;100.00;100181.53;5128744;29;20469;-71
2022/12/14 10:37:24;;;;;;;11.38;7.70;;;;;;;-0.60;100.00;100180.44;5130347;29;20044;-70
2022/12/14 10:40:07;;;;;;;11.65;6.78;;;;;;;-0.47;100.00;100179.81;5129800;29;20049;-71
2022/12/14 10:43:09;;;;;;;11.60;7.63;;;;;;;-0.42;100.00;100186.38;5130928;29;20039;-71
2022/12/14 10:45:48;;;;;;;11.77;7.45;;;;;;;-0.37;100.00;100183.59;5103871;29;20125;-71
2022/12/14 10:48:31;;;;;;;12.38;8.57;;;;;;;-0.37;100.00;100183.59;5130144;29;20482;-71
2022/12/14 10:51:11;;;;;;;13.45;8.57;;;;;;;-0.35;100.00;100185.16;5125870;29;20035;-71
2022/12/14 10:53:48;;;;;;;14.38;8.48;;;;;;;-0.36;100.00;100180.94;5130377;29;20081;-70
2022/12/14 10:56:32;;;;;;;12.98;8.40;;;;;;;-0.13;100.00;100186.66;5130397;29;20028;-71
2022/12/14 10:59:25;;;;;;;12.90;8.00;;;;;;;-0.06;100.00;100185.44;5128460;29;20027;-71
2022/12/14 11:02:15;;;;;;;13.77;7.50;;;;;;;-0.09;100.00;100183.84;5130710;29;20039;-71
2022/12/14 11:05:02;;;;;;;13.57;7.85;;;;;;;-0.13;100.00;100190.06;5127475;29;20039;-71
2022/12/14 11:07:33;;;;;;;11.38;7.85;;;;;;;-0.18;100.00;100181.75;5125892;29;20031;-71
2022/12/14 11:10:20;;;;;;;14.90;8.20;;;;;;;0.09;100.00;100179.50;5126337;29;20406;-71
2022/12/14 11:12:57;;;;;;;12.02;7.78;;;;;;;-0.04;100.00;100184.47;5130233;29;20287;-71
2022/12/14 11:15:34;;;;;;;11.73;7.03;;;;;;;0.01;100.00;100196.28;5128176;29;20027;-71
2022/12/14 11:18:28;;;;;;;11.82;8.32;;;;;;;0.14;100.00;100190.38;5130951;29;20049;-71
2022/12/14 11:21:03;;;;;;;16.90;8.02;;;;;;;0.00;100.00;100187.72;5127164;29;20031;-71
2022/12/14 11:23:37;;;;;;;13.77;8.35;;;;;;;0.00;100.00;100169.69;5129122;29;20039;-71
2022/12/14 11:26:12;;;;;;;12.27;8.25;;;;;;;0.19;100.00;100179.84;5129800;29;20038;-71
2022/12/14 11:28:49;;;;;;;15.65;7.95;;;;;;;0.21;100.00;100178.84;5126762;29;20024;-71
2022/12/14 11:31:25;;;;;;;11.60;7.40;;;;;;;0.15;100.00;100184.34;5128721;29;20035;-71
2022/12/14 11:33:58;;;;;;;12.25;7.28;;;;;;;0.20;100.00;100184.09;5111697;29;20035;-71
2022/12/14 11:36:35;;;;;;;14.30;8.05;;;;;;;0.37;100.00;100188.34;5129949;29;20028;-71
2022/12/14 11:39:12;;;;;;;13.13;7.78;;;;;;;0.39;100.00;100182.22;5127935;29;20043;-71
2022/12/14 11:41:49;;;;;;;12.48;7.80;;;;;;;0.37;100.00;100178.88;5128302;29;20401;-71
2022/12/14 11:44:25;;;;;;;13.75;7.43;;;;;;;0.41;100.00;100179.53;5125034;29;20035;-71
2022/12/14 11:46:56;;;;;;;13.23;8.63;;;;;;;0.43;100.00;100178.56;5125149;29;20028;-72
2022/12/14 11:49:39;;;;;;;17.27;8.13;;;;;;;0.57;100.00;100169.22;5127736;29;20099;-71
2022/12/14 11:52:17;;;;;;;14.40;8.18;;;;;;;0.42;100.00;100176.06;5126794;29;20655;-71
2022/12/14 11:54:51;;;;;;;12.60;7.88;;;;;;;0.54;100.00;100180.56;5128517;29;20027;-71
2022/12/14 11:57:30;;;;;;;13.90;8.02;;;;;;;0.57;100.00;100182.97;5128067;29;20031;-71
2022/12/14 12:00:06;;;;;;;14.73;7.70;;;;;;;0.53;100.00;100185.78;5126303;29;20147;-70
2022/12/14 12:02:46;;;;;;;12.57;8.10;;;;;;;0.62;100.00;100180.16;5126431;29;20520;-71
2022/12/14 12:05:20;;;;;;;14.10;8.02;;;;;;;0.69;100.00;100178.91;5127769;29;20508;-71
2022/12/14 12:07:58;;;;;;;13.60;8.70;;;;;;;0.77;100.00;100170.75;5120208;29;20138;-70